createdAt,value
2018-11-06T00:01:20.378Z,76.33
2018-11-06T00:03:29.381Z,72.30
2018-11-06T00:05:32.584Z,59.70
2018-11-06T00:07:35.756Z,67.27
2018-11-06T00:09:38.984Z,72.13
2018-11-06T00:11:42.215Z,78.80
2018-11-06T00:13:45.428Z,62.07
2018-11-06T00:15:49.003Z,70.73
2018-11-06T00:17:52.196Z,74.23
2018-11-06T00:19:55.355Z,69.53
2018-11-06T00:21:58.889Z,72.40
2018-11-06T00:24:02.111Z,71.80
2018-11-06T00:26:05.472Z,71.77
2018-11-06T00:28:08.970Z,74.60
2018-11-06T00:30:13.517Z,74.50
2018-11-06T00:32:16.861Z,64.17
2018-11-06T00:34:20.160Z,61.83
2018-11-06T00:36:23.459Z,62.77
2018-11-06T00:38:26.718Z,58.80
2018-11-06T00:40:29.884Z,77.73
2018-11-06T00:42:33.443Z,78.43
2018-11-06T00:44:36.680Z,69.17
2018-11-06T00:46:40.045Z,71.87
2018-11-06T00:48:43.504Z,58.57
2018-11-06T00:50:46.763Z,72.00
2018-11-06T00:52:49.981Z,62.97
2018-11-06T00:54:53.320Z,77.70
2018-11-06T00:56:56.570Z,67.17
2018-11-06T00:58:59.831Z,76.57
2018-11-06T01:01:03.145Z,82.47
2018-11-06T01:03:06.553Z,71.40
2018-11-06T01:05:11.223Z,64.80
2018-11-06T01:07:15.261Z,82.27
2018-11-06T01:09:18.624Z,62.50
2018-11-06T01:11:22.301Z,74.53
2018-11-06T01:13:25.644Z,75.80
2018-11-06T01:15:29.324Z,75.73
2018-11-06T01:17:33.264Z,70.73
2018-11-06T01:19:36.490Z,72.50
2018-11-06T01:21:39.804Z,72.67
2018-11-06T01:23:43.016Z,65.90
2018-11-06T01:25:46.297Z,68.97
2018-11-06T01:27:49.604Z,62.80
2018-11-06T01:29:52.796Z,65.40
2018-11-06T01:31:55.969Z,74.97
2018-11-06T01:33:59.193Z,66.43
2018-11-06T01:36:02.437Z,71.23
2018-11-06T01:38:06.080Z,69.27
2018-11-06T01:40:11.712Z,73.47
2018-11-06T01:42:14.902Z,69.47
2018-11-06T01:44:18.463Z,69.80
2018-11-06T01:46:22.072Z,66.60
2018-11-06T01:48:25.268Z,65.47
2018-11-06T01:50:28.445Z,69.27
2018-11-06T01:52:32.474Z,64.60
2018-11-06T01:54:35.731Z,72.63
2018-11-06T01:56:39.045Z,67.83
2018-11-06T01:58:42.916Z,67.30
2018-11-06T02:00:46.239Z,72.20
2018-11-06T02:02:49.529Z,79.43
2018-11-06T02:04:52.716Z,83.40
2018-11-06T02:06:56.254Z,80.93
2018-11-06T02:08:59.760Z,82.77
2018-11-06T02:11:03.607Z,85.50
2018-11-06T02:13:07.128Z,72.70
2018-11-06T02:15:10.538Z,90.37
2018-11-06T02:17:14.501Z,74.20
2018-11-06T02:19:17.708Z,77.27
2018-11-06T02:21:21.212Z,86.03
2018-11-06T02:23:24.589Z,76.33
2018-11-06T02:25:28.120Z,73.87
2018-11-06T02:27:31.656Z,70.87
2018-11-06T02:29:35.165Z,78.47
2018-11-06T02:31:38.359Z,71.57
2018-11-06T02:33:42.001Z,91.77
2018-11-06T02:35:45.237Z,87.23
2018-11-06T02:37:48.426Z,91.33
2018-11-06T02:39:51.612Z,80.47
2018-11-06T02:41:54.917Z,84.50
2018-11-06T02:43:58.106Z,80.57
2018-11-06T02:46:01.425Z,69.93
2018-11-06T02:48:06.521Z,78.33
2018-11-06T02:50:10.563Z,77.37
2018-11-06T02:52:14.104Z,81.20
2018-11-06T02:54:17.344Z,78.63
2018-11-06T02:56:20.520Z,79.60
2018-11-06T02:58:24.079Z,76.20
2018-11-06T03:00:28.107Z,82.20
2018-11-06T03:02:31.769Z,72.70
2018-11-06T03:04:34.984Z,71.17
2018-11-06T03:06:38.197Z,81.57
2018-11-06T03:08:42.343Z,68.03
2018-11-06T03:10:45.850Z,75.90
2018-11-06T03:12:49.240Z,75.80
2018-11-06T03:14:52.487Z,81.47
2018-11-06T03:16:55.719Z,96.27
2018-11-06T03:18:59.120Z,115.13
2018-11-06T03:21:02.671Z,100.33
2018-11-06T03:23:06.403Z,75.33
2018-11-06T03:25:10.278Z,81.73
2018-11-06T03:27:13.509Z,76.50
2018-11-06T03:29:17.228Z,79.23
2018-11-06T03:31:20.492Z,66.30
2018-11-06T03:33:24.224Z,72.30
2018-11-06T03:35:27.848Z,66.60
2018-11-06T03:37:31.237Z,64.53
2018-11-06T03:39:34.476Z,55.13
2018-11-06T03:41:37.716Z,58.27
2018-11-06T03:43:40.900Z,57.00
2018-11-06T03:45:44.101Z,45.53
2018-11-06T03:47:47.328Z,80.20
2018-11-06T03:49:50.669Z,55.60
2018-11-06T03:51:53.857Z,71.30
2018-11-06T03:53:57.050Z,52.30
2018-11-06T03:56:00.266Z,52.20
2018-11-06T03:58:03.477Z,53.00
2018-11-06T04:00:09.940Z,65.13
2018-11-06T04:02:13.328Z,54.60
2018-11-06T04:04:16.753Z,56.87
2018-11-06T04:06:20.006Z,57.43
2018-11-06T04:08:23.196Z,62.30
2018-11-06T04:10:26.381Z,82.63
2018-11-06T04:12:29.577Z,69.23
2018-11-06T04:14:32.758Z,76.23
2018-11-06T04:16:36.791Z,62.20
2018-11-06T04:18:39.996Z,63.77
2018-11-06T04:20:43.256Z,67.23
2018-11-06T04:22:46.448Z,65.33
2018-11-06T04:24:49.633Z,55.73
2018-11-06T04:26:53.077Z,43.60
2018-11-06T04:28:56.265Z,63.40
2018-11-06T04:30:59.445Z,65.23
2018-11-06T04:33:03.000Z,75.53
2018-11-06T04:35:07.236Z,52.57
2018-11-06T04:37:11.141Z,53.93
2018-11-06T04:39:14.723Z,53.70
2018-11-06T04:41:18.044Z,72.80
2018-11-06T04:43:21.414Z,59.80
2018-11-06T04:45:25.236Z,61.50
2018-11-06T04:47:28.653Z,61.37
2018-11-06T04:49:32.204Z,86.20
2018-11-06T04:51:35.495Z,94.07
2018-11-06T04:53:38.676Z,58.40
2018-11-06T04:55:41.864Z,82.53
2018-11-06T04:57:45.064Z,83.87
2018-11-06T04:59:48.265Z,50.93
2018-11-06T05:01:52.039Z,53.47
2018-11-06T05:03:55.541Z,82.23
2018-11-06T05:05:58.760Z,61.57
2018-11-06T05:08:01.992Z,72.83
2018-11-06T05:10:07.162Z,62.10
2018-11-06T05:12:10.420Z,57.73
2018-11-06T05:14:13.731Z,54.47
2018-11-06T05:16:17.117Z,53.00
2018-11-06T05:18:20.351Z,55.63
2018-11-06T05:20:23.543Z,44.90
2018-11-06T05:22:27.016Z,45.03
2018-11-06T05:24:30.216Z,41.27
2018-11-06T05:26:33.397Z,54.47
2018-11-06T05:28:36.656Z,48.57
2018-11-06T05:30:39.841Z,60.17
2018-11-06T05:32:44.395Z,43.33
2018-11-06T05:34:47.862Z,48.33
2018-11-06T05:36:51.196Z,43.30
2018-11-06T05:38:54.520Z,72.97
2018-11-06T05:40:59.500Z,47.37
2018-11-06T05:43:02.713Z,59.17
2018-11-06T05:45:06.388Z,77.33
2018-11-06T05:47:09.675Z,31.17
2018-11-06T05:49:13.131Z,50.93
2018-11-06T05:51:16.636Z,27.57
2018-11-06T05:53:20.122Z,56.60
2018-11-06T05:55:23.828Z,55.83
2018-11-06T05:57:27.064Z,62.23
2018-11-06T05:59:30.308Z,76.90
2018-11-06T06:01:33.481Z,84.43
2018-11-06T06:03:36.785Z,71.50
2018-11-06T06:05:40.362Z,67.87
2018-11-06T06:07:43.605Z,67.90
2018-11-06T06:09:47.785Z,60.57
2018-11-06T06:11:51.000Z,61.03
2018-11-06T06:13:54.561Z,58.40
2018-11-06T06:15:57.843Z,60.43
2018-11-06T06:18:02.025Z,66.97
2018-11-06T06:20:06.799Z,56.50
2018-11-06T06:22:10.027Z,57.77
2018-11-06T06:24:13.376Z,67.80
2018-11-06T06:26:16.576Z,57.23
2018-11-06T06:28:20.165Z,52.07
2018-11-06T06:30:23.937Z,52.97
2018-11-06T06:32:27.267Z,52.20
2018-11-06T06:34:30.632Z,49.10
2018-11-06T06:36:33.925Z,47.57
2018-11-06T06:38:37.190Z,64.00
2018-11-06T06:40:40.567Z,50.87
2018-11-06T06:42:44.258Z,40.73
2018-11-06T06:44:48.017Z,44.30
2018-11-06T06:46:51.220Z,73.20
2018-11-06T06:48:54.408Z,47.17
2018-11-06T06:50:57.709Z,38.37
2018-11-06T06:53:00.951Z,45.00
2018-11-06T06:55:05.364Z,70.67
2018-11-06T06:57:08.722Z,70.33
2018-11-06T06:59:12.202Z,41.30
2018-11-06T07:01:15.545Z,49.10
2018-11-06T07:03:18.730Z,57.43
2018-11-06T07:05:23.332Z,42.33
2018-11-06T07:07:26.531Z,49.00
2018-11-06T07:09:29.881Z,35.40
2018-11-06T07:11:33.378Z,33.60
2018-11-06T07:13:37.058Z,46.93
2018-11-06T07:15:40.425Z,50.03
2018-11-06T07:17:44.688Z,48.53
2018-11-06T07:19:47.928Z,35.83
2018-11-06T07:21:51.352Z,42.23
2018-11-06T07:23:54.944Z,34.27
2018-11-06T07:25:58.118Z,36.77
2018-11-06T07:28:01.368Z,32.70
2018-11-06T07:30:06.460Z,43.23
2018-11-06T07:32:09.640Z,41.27
2018-11-06T07:34:12.916Z,43.73
2018-11-06T07:36:16.504Z,34.90
2018-11-06T07:38:19.733Z,34.73
2018-11-06T07:40:22.991Z,48.93
2018-11-06T07:42:26.381Z,40.03
2018-11-06T07:44:29.888Z,42.87
2018-11-06T07:46:33.482Z,52.43
2018-11-06T07:48:36.734Z,40.20
2018-11-06T07:50:40.034Z,49.33
2018-11-06T07:52:44.102Z,39.47
2018-11-06T07:54:47.292Z,44.63
2018-11-06T07:56:50.576Z,50.30
2018-11-06T07:58:53.836Z,73.57
2018-11-06T08:00:57.218Z,53.70
2018-11-06T08:03:00.747Z,44.47
2018-11-06T08:05:04.016Z,45.53
2018-11-06T08:07:07.621Z,50.93
2018-11-06T08:09:11.237Z,41.47
2018-11-06T08:11:14.562Z,43.10
2018-11-06T08:13:17.880Z,43.40
2018-11-06T08:15:21.612Z,38.53
2018-11-06T08:17:24.874Z,31.87
2018-11-06T08:19:28.102Z,39.77
2018-11-06T08:21:31.392Z,35.70
2018-11-06T08:23:34.634Z,37.47
2018-11-06T08:25:38.032Z,33.73
2018-11-06T08:27:44.560Z,36.07
2018-11-06T08:29:48.120Z,34.83
2018-11-06T08:31:51.679Z,36.93
2018-11-06T08:33:54.776Z,34.40
2018-11-06T08:35:58.757Z,33.10
2018-11-06T08:38:02.360Z,31.20
2018-11-06T08:40:06.751Z,33.17
2018-11-06T08:42:09.972Z,37.93
2018-11-06T08:44:13.185Z,32.53
2018-11-06T08:46:16.380Z,35.07
2018-11-06T08:48:19.635Z,30.60
2018-11-06T08:50:23.015Z,32.83
2018-11-06T08:52:26.301Z,30.57
2018-11-06T08:54:29.583Z,31.43
2018-11-06T08:56:33.296Z,30.10
2018-11-06T08:58:36.581Z,30.90
2018-11-06T09:00:39.792Z,33.80
2018-11-06T09:02:44.478Z,33.80
2018-11-06T09:04:48.160Z,28.27
2018-11-06T09:06:51.608Z,31.57
2018-11-06T09:08:54.947Z,35.27
2018-11-06T09:10:58.308Z,32.40
2018-11-06T09:13:01.573Z,29.00
2018-11-06T09:15:05.550Z,34.80
2018-11-06T09:17:08.903Z,27.80
2018-11-06T09:19:12.292Z,32.60
2018-11-06T09:21:15.552Z,33.37
2018-11-06T09:23:18.779Z,30.57
2018-11-06T09:25:22.125Z,34.17
2018-11-06T09:27:25.436Z,36.60
2018-11-06T09:29:28.626Z,34.83
2018-11-06T09:31:31.843Z,33.67
2018-11-06T09:33:35.277Z,42.53
2018-11-06T09:35:38.515Z,36.07
2018-11-06T09:37:42.726Z,34.10
2018-11-06T09:39:46.169Z,38.20
2018-11-06T09:41:49.521Z,33.30
2018-11-06T09:43:53.033Z,36.60
2018-11-06T09:45:56.256Z,42.83
2018-11-06T09:47:59.512Z,34.73
2018-11-06T09:50:02.932Z,40.00
2018-11-06T09:52:06.308Z,38.07
2018-11-06T09:54:09.634Z,36.87
2018-11-06T09:56:13.068Z,39.07
2018-11-06T09:58:16.552Z,42.03
2018-11-06T10:00:20.469Z,44.00
2018-11-06T10:02:23.832Z,47.27
2018-11-06T10:04:27.113Z,40.17
2018-11-06T10:06:30.393Z,43.83
2018-11-06T10:08:34.257Z,42.03
2018-11-06T10:10:37.600Z,40.50
2018-11-06T10:12:41.187Z,39.03
2018-11-06T10:14:44.926Z,35.63
2018-11-06T10:16:48.494Z,37.33
2018-11-06T10:18:52.020Z,42.03
2018-11-06T10:20:55.259Z,37.10
2018-11-06T10:22:58.526Z,34.33
2018-11-06T10:25:01.780Z,38.80
2018-11-06T10:27:04.961Z,43.60
2018-11-06T10:29:08.621Z,38.90
2018-11-06T10:31:11.921Z,44.67
2018-11-06T10:33:15.169Z,38.83
2018-11-06T10:35:18.930Z,38.47
2018-11-06T10:37:22.158Z,37.77
2018-11-06T10:39:25.484Z,35.20
2018-11-06T10:41:29.095Z,34.23
2018-11-06T10:43:32.748Z,42.87
2018-11-06T10:45:36.117Z,37.27
2018-11-06T10:47:42.875Z,42.10
2018-11-06T10:49:46.070Z,40.10
2018-11-06T10:51:49.301Z,35.20
2018-11-06T10:53:52.729Z,38.53
2018-11-06T10:55:56.102Z,40.73
2018-11-06T10:57:59.338Z,31.97
2018-11-06T11:00:03.148Z,36.40
2018-11-06T11:02:12.248Z,37.43
2018-11-06T11:04:20.569Z,34.33
2018-11-06T11:06:23.905Z,37.57
2018-11-06T11:08:27.200Z,39.60
2018-11-06T11:10:30.357Z,35.40
2018-11-06T11:12:33.756Z,36.23
2018-11-06T11:14:37.012Z,35.97
2018-11-06T11:16:40.232Z,34.80
2018-11-06T11:18:43.777Z,31.70
2018-11-06T11:20:47.018Z,32.13
2018-11-06T11:22:50.195Z,31.40
2018-11-06T11:24:53.517Z,34.37
2018-11-06T11:26:56.820Z,35.37
2018-11-06T11:29:00.049Z,29.87
2018-11-06T11:31:03.505Z,32.03
2018-11-06T11:33:06.773Z,29.50
2018-11-06T11:35:10.654Z,32.40
2018-11-06T11:37:14.629Z,31.80
2018-11-06T11:39:17.833Z,32.57
2018-11-06T11:41:21.043Z,43.97
2018-11-06T11:43:24.329Z,42.23
2018-11-06T11:45:27.544Z,37.20
2018-11-06T11:47:30.717Z,27.63
2018-11-06T11:49:34.041Z,36.03
2018-11-06T11:51:37.449Z,28.67
2018-11-06T11:53:40.690Z,29.20
2018-11-06T11:55:44.434Z,33.50
2018-11-06T11:57:47.815Z,27.67
2018-11-06T11:59:51.368Z,31.77
2018-11-06T12:01:55.197Z,29.67
2018-11-06T12:03:58.426Z,29.63
2018-11-06T12:06:01.713Z,29.97
2018-11-06T12:08:05.088Z,30.93
2018-11-06T12:10:10.047Z,30.83
2018-11-06T12:12:13.436Z,33.60
2018-11-06T12:14:16.676Z,25.10
2018-11-06T12:16:19.883Z,27.53
2018-11-06T12:18:23.141Z,30.80
2018-11-06T12:20:26.789Z,31.97
2018-11-06T12:22:30.232Z,26.00
2018-11-06T12:24:33.669Z,27.80
2018-11-06T12:26:37.028Z,25.33
2018-11-06T12:28:40.244Z,26.40
2018-11-06T12:30:43.583Z,24.23
2018-11-06T12:32:46.894Z,28.23
2018-11-06T12:34:50.075Z,29.33
2018-11-06T12:36:53.284Z,27.10
2018-11-06T12:38:56.752Z,29.93
2018-11-06T12:41:00.078Z,28.30
2018-11-06T12:43:03.661Z,27.00
2018-11-06T12:45:08.788Z,50.13
2018-11-06T12:47:12.238Z,28.73
2018-11-06T12:49:15.494Z,27.37
2018-11-06T12:51:18.693Z,27.10
2018-11-06T12:53:21.937Z,30.63
2018-11-06T12:55:25.382Z,30.03
2018-11-06T12:57:28.845Z,29.53
2018-11-06T12:59:32.476Z,32.70
2018-11-06T13:01:35.724Z,31.30
2018-11-06T13:03:38.907Z,27.27
2018-11-06T13:05:42.148Z,28.17
2018-11-06T13:07:46.064Z,27.70
2018-11-06T13:09:49.371Z,27.20
2018-11-06T13:11:52.776Z,26.00
2018-11-06T13:13:55.974Z,28.17
2018-11-06T13:15:59.497Z,38.50
2018-11-06T13:18:02.923Z,28.70
2018-11-06T13:20:07.932Z,32.07
2018-11-06T13:22:11.348Z,25.70
2018-11-06T13:24:14.614Z,27.17
2018-11-06T13:26:17.973Z,29.73
2018-11-06T13:28:21.261Z,30.23
2018-11-06T13:30:24.425Z,28.93
2018-11-06T13:32:27.713Z,28.20
2018-11-06T13:34:31.173Z,32.07
2018-11-06T13:36:34.400Z,24.93
2018-11-06T13:38:37.684Z,31.73
2018-11-06T13:40:40.935Z,30.57
2018-11-06T13:42:44.920Z,34.93
2018-11-06T13:44:48.377Z,26.47
2018-11-06T13:46:51.608Z,28.23
2018-11-06T13:48:54.777Z,30.63
2018-11-06T13:50:58.004Z,30.93
2018-11-06T13:53:01.677Z,32.87
2018-11-06T13:55:05.854Z,28.67
2018-11-06T13:57:09.428Z,30.20
2018-11-06T13:59:12.679Z,33.10
2018-11-06T14:01:15.940Z,32.27
2018-11-06T14:03:19.242Z,28.53
2018-11-06T14:05:23.073Z,27.30
2018-11-06T14:07:26.345Z,26.77
2018-11-06T14:09:29.529Z,30.73
2018-11-06T14:11:33.138Z,29.77
2018-11-06T14:13:36.317Z,25.60
2018-11-06T14:15:39.502Z,41.20
2018-11-06T14:17:43.024Z,25.53
2018-11-06T14:19:46.377Z,24.67
2018-11-06T14:21:49.689Z,26.53
2018-11-06T14:23:52.961Z,26.93
2018-11-06T14:25:56.622Z,23.77
2018-11-06T14:27:59.796Z,26.60
2018-11-06T14:30:03.040Z,34.83
2018-11-06T14:32:06.772Z,40.70
2018-11-06T14:34:09.992Z,40.17
2018-11-06T14:36:13.378Z,27.60
2018-11-06T14:38:16.946Z,27.10
2018-11-06T14:40:20.760Z,27.27
2018-11-06T14:42:24.140Z,32.23
2018-11-06T14:44:27.838Z,32.50
2018-11-06T14:46:31.533Z,30.53
2018-11-06T14:48:34.985Z,33.27
2018-11-06T14:50:38.468Z,31.40
2018-11-06T14:52:41.696Z,29.10
2018-11-06T14:54:44.941Z,37.30
2018-11-06T14:56:48.412Z,31.87
2018-11-06T14:58:52.011Z,29.93
2018-11-06T15:00:55.286Z,31.70
2018-11-06T15:02:58.522Z,36.43
2018-11-06T15:05:01.702Z,43.63
2018-11-06T15:07:05.581Z,39.57
2018-11-06T15:09:09.748Z,37.27
2018-11-06T15:11:13.163Z,39.57
2018-11-06T15:13:16.396Z,40.47
2018-11-06T15:15:19.594Z,37.53
2018-11-06T15:17:22.767Z,33.67
2018-11-06T15:19:26.037Z,31.17
2018-11-06T15:21:29.237Z,37.93
2018-11-06T15:23:32.465Z,38.10
2018-11-06T15:25:35.861Z,40.13
2018-11-06T15:27:39.508Z,38.37
2018-11-06T15:29:42.684Z,39.27
2018-11-06T15:31:45.920Z,32.63
2018-11-06T15:33:49.433Z,36.67
2018-11-06T15:35:52.681Z,36.40
2018-11-06T15:37:55.939Z,52.30
2018-11-06T15:39:59.480Z,41.60
2018-11-06T15:42:02.702Z,37.50
2018-11-06T15:44:06.336Z,37.80
2018-11-06T15:46:09.896Z,42.20
2018-11-06T15:48:13.136Z,40.70
2018-11-06T15:50:17.564Z,44.47
2018-11-06T15:52:20.756Z,42.87
2018-11-06T15:54:24.137Z,37.10
2018-11-06T15:56:27.448Z,42.50
2018-11-06T15:58:30.701Z,42.73
2018-11-06T16:00:34.179Z,44.53
2018-11-06T16:02:37.574Z,51.20
2018-11-06T16:04:40.751Z,44.87
2018-11-06T16:06:44.276Z,44.00
2018-11-06T16:08:47.490Z,46.90
2018-11-06T16:10:51.350Z,49.63
2018-11-06T16:12:54.560Z,45.83
2018-11-06T16:14:57.744Z,49.43
2018-11-06T16:17:01.197Z,45.67
2018-11-06T16:19:04.528Z,39.93
2018-11-06T16:21:07.843Z,47.37
2018-11-06T16:23:11.212Z,46.60
2018-11-06T16:25:15.848Z,52.30
2018-11-06T16:27:19.058Z,40.67
2018-11-06T16:29:22.790Z,40.43
2018-11-06T16:31:26.258Z,50.53
2018-11-06T16:33:29.492Z,45.13
2018-11-06T16:35:32.708Z,48.93
2018-11-06T16:37:38.234Z,52.07
2018-11-06T16:39:41.425Z,41.10
2018-11-06T16:41:45.076Z,42.90
2018-11-06T16:43:48.424Z,45.23
2018-11-06T16:45:52.046Z,47.20
2018-11-06T16:47:55.585Z,48.97
2018-11-06T16:49:59.188Z,51.73
2018-11-06T16:52:02.414Z,47.30
2018-11-06T16:54:05.883Z,49.30
2018-11-06T16:56:09.139Z,47.87
2018-11-06T16:58:12.612Z,47.23
2018-11-06T17:00:19.287Z,50.00
2018-11-06T17:02:22.619Z,47.40
2018-11-06T17:04:26.189Z,42.53
2018-11-06T17:06:39.934Z,48.53
2018-11-06T17:08:43.270Z,54.17
2018-11-06T17:10:46.524Z,48.00
2018-11-06T17:12:49.732Z,74.00
2018-11-06T17:14:53.022Z,74.50
2018-11-06T17:16:56.264Z,57.57
2018-11-06T17:18:59.492Z,50.83
2018-11-06T17:21:02.732Z,46.07
2018-11-06T17:23:06.548Z,49.70
2018-11-06T17:25:11.757Z,46.50
2018-11-06T17:27:14.979Z,51.83
2018-11-06T17:29:18.305Z,50.07
2018-11-06T17:31:21.527Z,53.13
2018-11-06T17:33:24.920Z,53.47
2018-11-06T17:35:28.520Z,50.30
2018-11-06T17:37:32.012Z,48.67
2018-11-06T17:39:35.739Z,53.10
2018-11-06T17:41:39.105Z,46.90
2018-11-06T17:43:42.660Z,53.23
2018-11-06T17:45:46.285Z,48.73
2018-11-06T17:47:50.111Z,59.83
2018-11-06T17:49:53.607Z,50.50
2018-11-06T17:51:56.860Z,51.00
2018-11-06T17:54:00.289Z,52.27
2018-11-06T17:56:03.536Z,48.00
2018-11-06T17:58:07.072Z,46.60
2018-11-06T18:00:16.462Z,50.67
2018-11-06T18:02:19.684Z,56.03
2018-11-06T18:04:23.013Z,52.50
2018-11-06T18:06:26.856Z,47.03
2018-11-06T18:08:30.191Z,50.60
2018-11-06T18:10:33.402Z,48.47
2018-11-06T18:12:37.348Z,49.93
2018-11-06T18:14:40.778Z,50.60
2018-11-06T18:16:43.978Z,64.00
2018-11-06T18:18:47.475Z,60.50
2018-11-06T18:20:50.910Z,53.90
2018-11-06T18:22:54.330Z,51.87
2018-11-06T18:24:57.940Z,53.53
2018-11-06T18:27:01.312Z,59.47
2018-11-06T18:29:05.123Z,48.10
2018-11-06T18:31:08.792Z,47.60
2018-11-06T18:33:14.982Z,47.40
2018-11-06T18:35:24.024Z,42.33
2018-11-06T18:37:33.524Z,56.13
2018-11-06T18:39:41.031Z,52.87
2018-11-06T18:41:51.648Z,57.80
2018-11-06T18:43:54.864Z,51.50
2018-11-06T18:46:01.079Z,56.10
2018-11-06T18:48:04.665Z,52.53
2018-11-06T18:50:20.495Z,53.67
2018-11-06T18:52:23.842Z,48.07
2018-11-06T18:54:28.101Z,58.70
2018-11-06T18:56:31.343Z,49.93
2018-11-06T18:58:41.620Z,49.53
2018-11-06T19:00:44.864Z,51.37
2018-11-06T19:02:49.537Z,51.17
2018-11-06T19:04:52.747Z,57.77
2018-11-06T19:06:56.143Z,53.57
2018-11-06T19:08:59.530Z,58.57
2018-11-06T19:11:02.774Z,64.57
2018-11-06T19:13:06.371Z,53.13
2018-11-06T19:15:14.021Z,59.63
2018-11-06T19:17:17.216Z,60.13
2018-11-06T19:19:20.648Z,53.43
2018-11-06T19:21:23.854Z,47.63
2018-11-06T19:23:27.080Z,51.33
2018-11-06T19:25:30.316Z,54.87
2018-11-06T19:27:33.579Z,54.83
2018-11-06T19:29:36.852Z,47.90
2018-11-06T19:31:40.054Z,51.27
2018-11-06T19:33:43.260Z,51.10
2018-11-06T19:35:46.485Z,57.87
2018-11-06T19:37:49.912Z,61.10
2018-11-06T19:39:53.169Z,59.10
2018-11-06T19:41:56.391Z,62.87
2018-11-06T19:44:00.020Z,54.37
2018-11-06T19:46:03.464Z,54.67
2018-11-06T19:48:07.046Z,56.43
2018-11-06T19:50:18.361Z,48.47
2018-11-06T19:52:21.584Z,61.97
2018-11-06T19:54:25.164Z,55.60
2018-11-06T19:56:28.886Z,54.37
2018-11-06T19:58:32.288Z,51.97
2018-11-06T20:00:35.576Z,53.20
2018-11-06T20:02:40.029Z,52.73
2018-11-06T20:04:43.340Z,66.30
2018-11-06T20:06:46.884Z,56.33
2018-11-06T20:08:50.096Z,50.37
2018-11-06T20:10:53.305Z,46.00
2018-11-06T20:12:56.720Z,56.80
2018-11-06T20:14:59.908Z,51.10
2018-11-06T20:17:03.143Z,55.90
2018-11-06T20:19:06.764Z,55.10
2018-11-06T20:21:10.045Z,52.50
2018-11-06T20:23:13.422Z,50.03
2018-11-06T20:25:16.656Z,68.43
2018-11-06T20:27:19.961Z,76.27
2018-11-06T20:29:23.316Z,61.27
2018-11-06T20:31:26.564Z,57.63
2018-11-06T20:33:30.200Z,55.63
2018-11-06T20:35:33.604Z,51.37
2018-11-06T20:37:37.286Z,57.13
2018-11-06T20:39:40.681Z,49.17
2018-11-06T20:41:45.977Z,53.63
2018-11-06T20:43:49.430Z,49.20
2018-11-06T20:45:52.838Z,50.50
2018-11-06T20:47:56.082Z,56.67
2018-11-06T20:49:59.309Z,52.23
2018-11-06T20:52:02.572Z,53.53
2018-11-06T20:54:06.172Z,52.33
2018-11-06T20:56:09.913Z,54.30
2018-11-06T20:58:13.174Z,47.83
2018-11-06T21:00:22.983Z,54.23
2018-11-06T21:02:26.648Z,50.77
2018-11-06T21:04:29.893Z,53.70
2018-11-06T21:06:33.148Z,59.67
2018-11-06T21:08:36.370Z,55.03
2018-11-06T21:10:40.048Z,48.23
2018-11-06T21:12:43.424Z,49.90
2018-11-06T21:14:50.716Z,54.30
2018-11-06T21:16:53.915Z,53.80
2018-11-06T21:18:57.117Z,62.30
2018-11-06T21:21:00.419Z,71.20
2018-11-06T21:23:03.728Z,71.17
2018-11-06T21:25:07.541Z,65.90
2018-11-06T21:27:11.071Z,54.07
2018-11-06T21:29:14.307Z,48.57
2018-11-06T21:31:17.589Z,53.60
2018-11-06T21:33:20.881Z,49.03
2018-11-06T21:35:24.167Z,51.73
2018-11-06T21:37:27.511Z,49.23
2018-11-06T21:39:31.041Z,50.10
2018-11-06T21:41:34.249Z,56.60
2018-11-06T21:43:37.436Z,52.57
2018-11-06T21:45:41.040Z,54.40
2018-11-06T21:47:45.509Z,47.03
2018-11-06T21:49:48.753Z,48.97
2018-11-06T21:51:51.940Z,54.30
2018-11-06T21:53:55.162Z,49.90
2018-11-06T21:55:58.863Z,52.77
2018-11-06T21:58:02.104Z,50.97
2018-11-06T22:00:07.864Z,50.77
2018-11-06T22:02:11.443Z,55.10
2018-11-06T22:04:14.840Z,49.60
2018-11-06T22:06:18.036Z,47.27
2018-11-06T22:08:21.336Z,54.20
2018-11-06T22:10:24.621Z,48.63
2018-11-06T22:12:27.938Z,51.60
2018-11-06T22:14:31.180Z,53.07
2018-11-06T22:16:34.503Z,46.77
2018-11-06T22:18:38.355Z,50.37
2018-11-06T22:20:41.680Z,51.30
2018-11-06T22:22:45.575Z,50.40
2018-11-06T22:24:49.148Z,50.90
2018-11-06T22:26:52.361Z,51.00
2018-11-06T22:28:55.828Z,48.77
2018-11-06T22:30:59.031Z,54.90
2018-11-06T22:33:02.312Z,47.10
2018-11-06T22:35:07.018Z,53.70
2018-11-06T22:37:10.339Z,50.60
2018-11-06T22:39:14.024Z,42.90
2018-11-06T22:41:17.364Z,48.83
2018-11-06T22:43:20.573Z,54.50
2018-11-06T22:45:23.805Z,54.43
2018-11-06T22:47:27.721Z,60.03
2018-11-06T22:49:31.334Z,55.17
2018-11-06T22:51:34.826Z,52.97
2018-11-06T22:53:38.026Z,56.90
2018-11-06T22:55:41.277Z,51.30
2018-11-06T22:57:44.703Z,54.23
2018-11-06T22:59:48.044Z,54.60
2018-11-06T23:01:52.527Z,55.70
2018-11-06T23:03:55.828Z,56.40
2018-11-06T23:05:59.223Z,52.20
2018-11-06T23:08:07.892Z,47.23
2018-11-06T23:10:11.574Z,47.97
2018-11-06T23:12:15.185Z,49.40
2018-11-06T23:14:18.538Z,49.07
2018-11-06T23:16:22.371Z,49.73
2018-11-06T23:18:25.545Z,48.83
2018-11-06T23:20:29.479Z,51.90
2018-11-06T23:22:32.906Z,55.20
2018-11-06T23:24:36.148Z,51.47
2018-11-06T23:26:39.712Z,47.67
2018-11-06T23:28:43.275Z,58.27
2018-11-06T23:30:46.470Z,55.30
2018-11-06T23:32:49.877Z,47.33
2018-11-06T23:34:53.642Z,54.63
2018-11-06T23:36:56.852Z,50.43
2018-11-06T23:39:00.037Z,57.53
2018-11-06T23:41:03.368Z,69.37
2018-11-06T23:43:06.983Z,52.43
2018-11-06T23:45:10.546Z,56.53
2018-11-06T23:47:14.065Z,56.13
2018-11-06T23:49:17.400Z,56.00
2018-11-06T23:51:20.580Z,53.47
2018-11-06T23:53:23.789Z,53.10
2018-11-06T23:55:26.996Z,53.20
2018-11-06T23:57:30.826Z,50.63
2018-11-06T23:59:34.006Z,50.23
